sensor_id;sensor_type;location;lat;lon;timestamp;P1;durP1;ratioP1;P2;durP2;ratioP2
51036;SDS011;37064;59.346;18.058;2023-11-22T00:00:08;2.35;;;1.52;;
51036;SDS011;37064;59.346;18.058;2023-11-22T00:02:35;1.00;;;0.88;;
51036;SDS011;37064;59.346;18.058;2023-11-22T00:05:02;1.92;;;1.15;;
51036;SDS011;37064;59.346;18.058;2023-11-22T00:07:28;1.92;;;1.20;;
51036;SDS011;37064;59.346;18.058;2023-11-22T00:09:54;2.97;;;0.98;;
51036;SDS011;37064;59.346;18.058;2023-11-22T00:12:21;1.30;;;1.00;;
51036;SDS011;37064;59.346;18.058;2023-11-22T00:14:48;2.85;;;1.10;;
51036;SDS011;37064;59.346;18.058;2023-11-22T00:17:14;3.08;;;1.27;;
51036;SDS011;37064;59.346;18.058;2023-11-22T00:19:42;1.90;;;1.27;;
51036;SDS011;37064;59.346;18.058;2023-11-22T00:22:09;1.00;;;0.88;;
51036;SDS011;37064;59.346;18.058;2023-11-22T00:24:38;1.60;;;0.98;;
51036;SDS011;37064;59.346;18.058;2023-11-22T00:27:05;1.80;;;1.10;;
51036;SDS011;37064;59.346;18.058;2023-11-22T00:29:31;3.08;;;1.38;;
51036;SDS011;37064;59.346;18.058;2023-11-22T00:31:57;1.40;;;1.00;;
51036;SDS011;37064;59.346;18.058;2023-11-22T00:34:23;1.75;;;0.98;;
51036;SDS011;37064;59.346;18.058;2023-11-22T00:36:50;2.25;;;0.90;;
51036;SDS011;37064;59.346;18.058;2023-11-22T00:39:16;2.05;;;1.33;;
51036;SDS011;37064;59.346;18.058;2023-11-22T00:41:42;2.35;;;1.10;;
51036;SDS011;37064;59.346;18.058;2023-11-22T00:44:09;1.65;;;1.02;;
51036;SDS011;37064;59.346;18.058;2023-11-22T00:46:35;1.98;;;1.05;;
51036;SDS011;37064;59.346;18.058;2023-11-22T00:49:04;2.72;;;1.00;;
51036;SDS011;37064;59.346;18.058;2023-11-22T00:51:30;3.45;;;1.20;;
51036;SDS011;37064;59.346;18.058;2023-11-22T00:53:58;3.13;;;1.48;;
51036;SDS011;37064;59.346;18.058;2023-11-22T00:56:24;2.80;;;1.38;;
51036;SDS011;37064;59.346;18.058;2023-11-22T00:58:50;2.65;;;1.50;;
51036;SDS011;37064;59.346;18.058;2023-11-22T01:01:18;4.07;;;1.50;;
51036;SDS011;37064;59.346;18.058;2023-11-22T01:03:44;2.28;;;1.75;;
51036;SDS011;37064;59.346;18.058;2023-11-22T01:06:10;3.08;;;1.80;;
51036;SDS011;37064;59.346;18.058;2023-11-22T01:08:36;2.55;;;1.60;;
51036;SDS011;37064;59.346;18.058;2023-11-22T01:11:02;3.97;;;2.35;;
51036;SDS011;37064;59.346;18.058;2023-11-22T01:13:28;4.50;;;1.63;;
51036;SDS011;37064;59.346;18.058;2023-11-22T01:15:55;2.72;;;1.60;;
51036;SDS011;37064;59.346;18.058;2023-11-22T01:18:21;2.05;;;1.30;;
51036;SDS011;37064;59.346;18.058;2023-11-22T01:20:47;2.92;;;1.58;;
51036;SDS011;37064;59.346;18.058;2023-11-22T01:23:13;2.47;;;1.67;;
51036;SDS011;37064;59.346;18.058;2023-11-22T01:25:39;2.00;;;1.33;;
51036;SDS011;37064;59.346;18.058;2023-11-22T01:28:05;4.25;;;1.50;;
51036;SDS011;37064;59.346;18.058;2023-11-22T01:30:36;4.40;;;1.90;;
51036;SDS011;37064;59.346;18.058;2023-11-22T01:33:03;5.22;;;1.63;;
51036;SDS011;37064;59.346;18.058;2023-11-22T01:35:29;7.28;;;2.47;;
51036;SDS011;37064;59.346;18.058;2023-11-22T01:37:55;2.70;;;1.85;;
51036;SDS011;37064;59.346;18.058;2023-11-22T01:40:23;3.15;;;1.70;;
51036;SDS011;37064;59.346;18.058;2023-11-22T01:42:51;2.72;;;1.88;;
51036;SDS011;37064;59.346;18.058;2023-11-22T01:45:19;2.58;;;1.50;;
51036;SDS011;37064;59.346;18.058;2023-11-22T01:47:45;2.05;;;1.30;;
51036;SDS011;37064;59.346;18.058;2023-11-22T01:50:11;3.70;;;1.70;;
51036;SDS011;37064;59.346;18.058;2023-11-22T01:52:39;2.45;;;1.45;;
51036;SDS011;37064;59.346;18.058;2023-11-22T01:55:05;2.78;;;1.95;;
51036;SDS011;37064;59.346;18.058;2023-11-22T01:57:33;2.55;;;1.45;;
51036;SDS011;37064;59.346;18.058;2023-11-22T02:00:03;4.18;;;1.80;;
51036;SDS011;37064;59.346;18.058;2023-11-22T02:02:29;2.90;;;1.63;;
51036;SDS011;37064;59.346;18.058;2023-11-22T02:04:56;2.72;;;1.60;;
51036;SDS011;37064;59.346;18.058;2023-11-22T02:07:22;4.50;;;1.80;;
51036;SDS011;37064;59.346;18.058;2023-11-22T02:09:48;3.35;;;1.75;;
51036;SDS011;37064;59.346;18.058;2023-11-22T02:12:14;2.97;;;1.60;;
51036;SDS011;37064;59.346;18.058;2023-11-22T02:14:40;3.25;;;2.05;;
51036;SDS011;37064;59.346;18.058;2023-11-22T02:17:06;3.17;;;2.10;;
51036;SDS011;37064;59.346;18.058;2023-11-22T02:19:32;3.13;;;2.10;;
51036;SDS011;37064;59.346;18.058;2023-11-22T02:21:58;3.70;;;1.58;;
51036;SDS011;37064;59.346;18.058;2023-11-22T02:24:25;2.70;;;1.80;;
51036;SDS011;37064;59.346;18.058;2023-11-22T02:26:51;3.75;;;1.95;;
51036;SDS011;37064;59.346;18.058;2023-11-22T02:29:17;9.05;;;2.33;;
51036;SDS011;37064;59.346;18.058;2023-11-22T02:31:45;4.60;;;2.08;;
51036;SDS011;37064;59.346;18.058;2023-11-22T02:34:11;6.47;;;1.90;;
51036;SDS011;37064;59.346;18.058;2023-11-22T02:36:37;3.30;;;1.35;;
51036;SDS011;37064;59.346;18.058;2023-11-22T02:39:03;2.78;;;1.40;;
51036;SDS011;37064;59.346;18.058;2023-11-22T02:41:29;2.30;;;1.48;;
51036;SDS011;37064;59.346;18.058;2023-11-22T02:43:56;2.97;;;1.60;;
51036;SDS011;37064;59.346;18.058;2023-11-22T02:46:22;2.97;;;1.50;;
51036;SDS011;37064;59.346;18.058;2023-11-22T02:48:48;3.42;;;1.77;;
51036;SDS011;37064;59.346;18.058;2023-11-22T02:51:14;3.95;;;1.60;;
51036;SDS011;37064;59.346;18.058;2023-11-22T02:53:42;2.45;;;1.45;;
51036;SDS011;37064;59.346;18.058;2023-11-22T02:56:10;2.67;;;1.52;;
51036;SDS011;37064;59.346;18.058;2023-11-22T02:58:36;2.17;;;1.50;;
51036;SDS011;37064;59.346;18.058;2023-11-22T03:01:02;1.83;;;1.25;;
51036;SDS011;37064;59.346;18.058;2023-11-22T03:03:28;3.28;;;1.25;;
51036;SDS011;37064;59.346;18.058;2023-11-22T03:05:54;3.15;;;1.70;;
51036;SDS011;37064;59.346;18.058;2023-11-22T03:08:20;2.08;;;1.80;;
51036;SDS011;37064;59.346;18.058;2023-11-22T03:10:46;1.63;;;1.40;;
51036;SDS011;37064;59.346;18.058;2023-11-22T03:13:12;2.10;;;1.40;;
51036;SDS011;37064;59.346;18.058;2023-11-22T03:15:38;3.63;;;1.85;;
51036;SDS011;37064;59.346;18.058;2023-11-22T03:18:05;2.40;;;1.48;;
51036;SDS011;37064;59.346;18.058;2023-11-22T03:20:31;3.35;;;1.67;;
51036;SDS011;37064;59.346;18.058;2023-11-22T03:22:57;2.80;;;1.70;;
51036;SDS011;37064;59.346;18.058;2023-11-22T03:25:24;2.17;;;1.70;;
51036;SDS011;37064;59.346;18.058;2023-11-22T03:27:50;3.03;;;1.98;;
51036;SDS011;37064;59.346;18.058;2023-11-22T03:30:16;3.05;;;1.70;;
51036;SDS011;37064;59.346;18.058;2023-11-22T03:32:43;3.20;;;2.00;;
51036;SDS011;37064;59.346;18.058;2023-11-22T03:35:09;2.70;;;1.60;;
51036;SDS011;37064;59.346;18.058;2023-11-22T03:37:35;3.35;;;1.60;;
51036;SDS011;37064;59.346;18.058;2023-11-22T03:40:02;2.95;;;2.03;;
51036;SDS011;37064;59.346;18.058;2023-11-22T03:42:28;2.13;;;1.40;;
51036;SDS011;37064;59.346;18.058;2023-11-22T03:44:54;2.53;;;1.63;;
51036;SDS011;37064;59.346;18.058;2023-11-22T03:47:20;2.22;;;1.63;;
51036;SDS011;37064;59.346;18.058;2023-11-22T03:49:46;2.85;;;1.55;;
51036;SDS011;37064;59.346;18.058;2023-11-22T03:52:13;3.78;;;1.60;;
51036;SDS011;37064;59.346;18.058;2023-11-22T03:54:39;2.08;;;1.50;;
51036;SDS011;37064;59.346;18.058;2023-11-22T03:57:05;2.67;;;1.55;;
51036;SDS011;37064;59.346;18.058;2023-11-22T03:59:31;3.58;;;1.80;;
51036;SDS011;37064;59.346;18.058;2023-11-22T04:01:57;3.15;;;2.25;;
51036;SDS011;37064;59.346;18.058;2023-11-22T04:04:23;3.15;;;1.90;;
51036;SDS011;37064;59.346;18.058;2023-11-22T04:06:49;3.63;;;2.05;;
51036;SDS011;37064;59.346;18.058;2023-11-22T04:09:15;1.45;;;1.35;;
51036;SDS011;37064;59.346;18.058;2023-11-22T04:11:45;2.33;;;1.83;;
51036;SDS011;37064;59.346;18.058;2023-11-22T04:14:14;5.78;;;2.13;;
51036;SDS011;37064;59.346;18.058;2023-11-22T04:16:40;3.20;;;2.30;;
51036;SDS011;37064;59.346;18.058;2023-11-22T04:19:06;3.13;;;2.20;;
51036;SDS011;37064;59.346;18.058;2023-11-22T04:21:32;2.60;;;2.05;;
51036;SDS011;37064;59.346;18.058;2023-11-22T04:23:59;3.13;;;2.00;;
51036;SDS011;37064;59.346;18.058;2023-11-22T04:26:30;2.85;;;1.95;;
51036;SDS011;37064;59.346;18.058;2023-11-22T04:28:56;5.50;;;2.13;;
51036;SDS011;37064;59.346;18.058;2023-11-22T04:31:23;2.78;;;1.90;;
51036;SDS011;37064;59.346;18.058;2023-11-22T04:33:49;2.67;;;1.70;;
51036;SDS011;37064;59.346;18.058;2023-11-22T04:36:15;4.53;;;1.95;;
51036;SDS011;37064;59.346;18.058;2023-11-22T04:38:42;2.35;;;1.67;;
51036;SDS011;37064;59.346;18.058;2023-11-22T04:41:08;2.13;;;1.63;;
51036;SDS011;37064;59.346;18.058;2023-11-22T04:43:34;3.13;;;1.95;;
51036;SDS011;37064;59.346;18.058;2023-11-22T04:46:00;3.03;;;1.70;;
51036;SDS011;37064;59.346;18.058;2023-11-22T04:48:26;2.05;;;1.58;;
51036;SDS011;37064;59.346;18.058;2023-11-22T04:50:52;2.78;;;1.42;;
51036;SDS011;37064;59.346;18.058;2023-11-22T04:53:18;1.52;;;1.40;;
51036;SDS011;37064;59.346;18.058;2023-11-22T04:55:44;2.38;;;1.42;;
51036;SDS011;37064;59.346;18.058;2023-11-22T04:58:10;2.05;;;1.48;;
51036;SDS011;37064;59.346;18.058;2023-11-22T05:00:36;2.70;;;1.77;;
51036;SDS011;37064;59.346;18.058;2023-11-22T05:03:02;1.80;;;1.42;;
51036;SDS011;37064;59.346;18.058;2023-11-22T05:05:28;2.30;;;1.35;;
51036;SDS011;37064;59.346;18.058;2023-11-22T05:07:54;2.50;;;1.67;;
51036;SDS011;37064;59.346;18.058;2023-11-22T05:10:20;1.40;;;1.25;;
51036;SDS011;37064;59.346;18.058;2023-11-22T05:12:46;1.98;;;1.30;;
51036;SDS011;37064;59.346;18.058;2023-11-22T05:15:12;3.08;;;1.30;;
51036;SDS011;37064;59.346;18.058;2023-11-22T05:17:39;2.88;;;1.42;;
51036;SDS011;37064;59.346;18.058;2023-11-22T05:20:05;2.05;;;1.13;;
51036;SDS011;37064;59.346;18.058;2023-11-22T05:22:34;2.92;;;1.05;;
51036;SDS011;37064;59.346;18.058;2023-11-22T05:25:00;2.78;;;1.38;;
51036;SDS011;37064;59.346;18.058;2023-11-22T05:27:26;1.77;;;1.20;;
51036;SDS011;37064;59.346;18.058;2023-11-22T05:29:53;2.97;;;1.20;;
51036;SDS011;37064;59.346;18.058;2023-11-22T05:32:19;2.38;;;1.30;;
51036;SDS011;37064;59.346;18.058;2023-11-22T05:34:45;4.28;;;1.42;;
51036;SDS011;37064;59.346;18.058;2023-11-22T05:37:11;2.40;;;1.25;;
51036;SDS011;37064;59.346;18.058;2023-11-22T05:39:37;1.90;;;1.30;;
51036;SDS011;37064;59.346;18.058;2023-11-22T05:42:03;5.85;;;1.20;;
51036;SDS011;37064;59.346;18.058;2023-11-22T05:44:30;2.97;;;1.48;;
51036;SDS011;37064;59.346;18.058;2023-11-22T05:46:56;3.83;;;1.20;;
51036;SDS011;37064;59.346;18.058;2023-11-22T05:49:22;5.32;;;1.30;;
51036;SDS011;37064;59.346;18.058;2023-11-22T05:51:48;1.90;;;1.48;;
51036;SDS011;37064;59.346;18.058;2023-11-22T05:54:14;2.53;;;1.40;;
51036;SDS011;37064;59.346;18.058;2023-11-22T05:56:41;1.83;;;1.23;;
51036;SDS011;37064;59.346;18.058;2023-11-22T05:59:07;3.05;;;1.40;;
51036;SDS011;37064;59.346;18.058;2023-11-22T06:01:33;3.13;;;1.65;;
51036;SDS011;37064;59.346;18.058;2023-11-22T06:03:59;2.85;;;1.30;;
51036;SDS011;37064;59.346;18.058;2023-11-22T06:06:25;2.50;;;1.17;;
51036;SDS011;37064;59.346;18.058;2023-11-22T06:08:51;1.52;;;1.20;;
51036;SDS011;37064;59.346;18.058;2023-11-22T06:11:18;3.45;;;1.50;;
51036;SDS011;37064;59.346;18.058;2023-11-22T06:13:45;4.55;;;1.42;;
51036;SDS011;37064;59.346;18.058;2023-11-22T06:16:12;3.55;;;1.98;;
51036;SDS011;37064;59.346;18.058;2023-11-22T06:18:38;1.83;;;1.40;;
51036;SDS011;37064;59.346;18.058;2023-11-22T06:21:08;3.05;;;1.73;;
51036;SDS011;37064;59.346;18.058;2023-11-22T06:23:35;4.13;;;2.13;;
51036;SDS011;37064;59.346;18.058;2023-11-22T06:26:01;4.70;;;1.95;;
51036;SDS011;37064;59.346;18.058;2023-11-22T06:28:27;3.00;;;1.67;;
51036;SDS011;37064;59.346;18.058;2023-11-22T06:30:54;3.97;;;1.88;;
51036;SDS011;37064;59.346;18.058;2023-11-22T06:33:20;3.63;;;2.15;;
51036;SDS011;37064;59.346;18.058;2023-11-22T06:35:46;2.88;;;1.92;;
51036;SDS011;37064;59.346;18.058;2023-11-22T06:38:12;4.10;;;2.10;;
51036;SDS011;37064;59.346;18.058;2023-11-22T06:40:38;3.70;;;2.38;;
51036;SDS011;37064;59.346;18.058;2023-11-22T06:43:04;3.00;;;1.90;;
51036;SDS011;37064;59.346;18.058;2023-11-22T06:45:30;4.07;;;1.80;;
51036;SDS011;37064;59.346;18.058;2023-11-22T06:47:56;2.92;;;2.05;;
51036;SDS011;37064;59.346;18.058;2023-11-22T06:50:23;3.63;;;2.15;;
51036;SDS011;37064;59.346;18.058;2023-11-22T06:52:49;3.65;;;2.05;;
51036;SDS011;37064;59.346;18.058;2023-11-22T06:55:17;3.90;;;2.00;;
51036;SDS011;37064;59.346;18.058;2023-11-22T06:57:43;5.38;;;2.45;;
51036;SDS011;37064;59.346;18.058;2023-11-22T07:00:10;6.30;;;3.60;;
51036;SDS011;37064;59.346;18.058;2023-11-22T07:02:37;4.55;;;2.83;;
51036;SDS011;37064;59.346;18.058;2023-11-22T07:05:04;6.50;;;4.03;;
51036;SDS011;37064;59.346;18.058;2023-11-22T07:07:34;7.07;;;3.70;;
51036;SDS011;37064;59.346;18.058;2023-11-22T07:10:00;9.88;;;4.20;;
51036;SDS011;37064;59.346;18.058;2023-11-22T07:12:27;6.97;;;3.85;;
51036;SDS011;37064;59.346;18.058;2023-11-22T07:14:53;9.00;;;3.85;;
51036;SDS011;37064;59.346;18.058;2023-11-22T07:17:20;8.88;;;4.43;;
51036;SDS011;37064;59.346;18.058;2023-11-22T07:19:47;6.32;;;3.53;;
51036;SDS011;37064;59.346;18.058;2023-11-22T07:22:16;8.52;;;4.10;;
51036;SDS011;37064;59.346;18.058;2023-11-22T07:24:45;6.68;;;3.25;;
51036;SDS011;37064;59.346;18.058;2023-11-22T07:27:14;6.65;;;3.55;;
51036;SDS011;37064;59.346;18.058;2023-11-22T07:29:40;7.57;;;3.80;;
51036;SDS011;37064;59.346;18.058;2023-11-22T07:32:07;9.18;;;4.40;;
51036;SDS011;37064;59.346;18.058;2023-11-22T07:34:34;7.25;;;3.70;;
51036;SDS011;37064;59.346;18.058;2023-11-22T07:37:00;6.65;;;3.38;;
51036;SDS011;37064;59.346;18.058;2023-11-22T07:39:27;6.97;;;4.00;;
51036;SDS011;37064;59.346;18.058;2023-11-22T07:41:55;7.30;;;3.60;;
51036;SDS011;37064;59.346;18.058;2023-11-22T07:44:22;7.93;;;4.18;;
51036;SDS011;37064;59.346;18.058;2023-11-22T07:46:49;9.73;;;4.53;;
51036;SDS011;37064;59.346;18.058;2023-11-22T07:49:16;14.95;;;4.40;;
51036;SDS011;37064;59.346;18.058;2023-11-22T07:51:43;11.23;;;4.75;;
51036;SDS011;37064;59.346;18.058;2023-11-22T07:54:12;8.02;;;4.00;;
51036;SDS011;37064;59.346;18.058;2023-11-22T07:56:41;10.80;;;4.40;;
51036;SDS011;37064;59.346;18.058;2023-11-22T07:59:08;7.78;;;4.28;;
51036;SDS011;37064;59.346;18.058;2023-11-22T08:01:36;12.10;;;4.60;;
51036;SDS011;37064;59.346;18.058;2023-11-22T08:04:02;8.35;;;4.70;;
51036;SDS011;37064;59.346;18.058;2023-11-22T08:06:30;8.57;;;4.03;;
51036;SDS011;37064;59.346;18.058;2023-11-22T08:08:56;9.77;;;5.32;;
51036;SDS011;37064;59.346;18.058;2023-11-22T08:11:26;10.18;;;4.43;;
51036;SDS011;37064;59.346;18.058;2023-11-22T08:13:52;9.40;;;4.13;;
51036;SDS011;37064;59.346;18.058;2023-11-22T08:16:22;8.32;;;4.13;;
51036;SDS011;37064;59.346;18.058;2023-11-22T08:18:48;7.88;;;3.53;;
51036;SDS011;37064;59.346;18.058;2023-11-22T08:21:15;7.15;;;3.50;;
51036;SDS011;37064;59.346;18.058;2023-11-22T08:23:42;7.88;;;4.05;;
51036;SDS011;37064;59.346;18.058;2023-11-22T08:26:08;7.32;;;3.63;;
51036;SDS011;37064;59.346;18.058;2023-11-22T08:28:34;6.93;;;4.05;;
51036;SDS011;37064;59.346;18.058;2023-11-22T08:31:00;5.30;;;3.60;;
51036;SDS011;37064;59.346;18.058;2023-11-22T08:33:26;5.43;;;3.65;;
51036;SDS011;37064;59.346;18.058;2023-11-22T08:35:53;9.23;;;3.80;;
51036;SDS011;37064;59.346;18.058;2023-11-22T08:38:23;7.07;;;3.47;;
51036;SDS011;37064;59.346;18.058;2023-11-22T08:40:51;6.57;;;3.65;;
51036;SDS011;37064;59.346;18.058;2023-11-22T08:43:17;6.80;;;3.70;;
51036;SDS011;37064;59.346;18.058;2023-11-22T08:45:48;5.75;;;3.33;;
51036;SDS011;37064;59.346;18.058;2023-11-22T08:48:14;7.30;;;3.25;;
51036;SDS011;37064;59.346;18.058;2023-11-22T08:50:40;5.47;;;2.78;;
51036;SDS011;37064;59.346;18.058;2023-11-22T08:53:06;6.15;;;3.05;;
51036;SDS011;37064;59.346;18.058;2023-11-22T08:55:33;7.13;;;3.60;;
51036;SDS011;37064;59.346;18.058;2023-11-22T08:57:59;5.10;;;3.05;;
51036;SDS011;37064;59.346;18.058;2023-11-22T09:00:25;4.78;;;3.05;;
51036;SDS011;37064;59.346;18.058;2023-11-22T09:02:53;8.60;;;3.05;;
51036;SDS011;37064;59.346;18.058;2023-11-22T09:05:22;5.45;;;3.17;;
51036;SDS011;37064;59.346;18.058;2023-11-22T09:07:48;5.00;;;3.22;;
51036;SDS011;37064;59.346;18.058;2023-11-22T09:10:16;5.63;;;3.17;;
51036;SDS011;37064;59.346;18.058;2023-11-22T09:12:44;3.80;;;2.22;;
51036;SDS011;37064;59.346;18.058;2023-11-22T09:15:13;4.15;;;2.45;;
51036;SDS011;37064;59.346;18.058;2023-11-22T09:17:44;3.08;;;1.90;;
51036;SDS011;37064;59.346;18.058;2023-11-22T09:20:11;6.18;;;2.65;;
51036;SDS011;37064;59.346;18.058;2023-11-22T09:22:44;4.90;;;2.85;;
51036;SDS011;37064;59.346;18.058;2023-11-22T09:25:13;4.63;;;2.17;;
51036;SDS011;37064;59.346;18.058;2023-11-22T09:27:40;3.08;;;2.38;;
51036;SDS011;37064;59.346;18.058;2023-11-22T09:30:06;2.97;;;2.25;;
51036;SDS011;37064;59.346;18.058;2023-11-22T09:32:36;3.42;;;2.72;;
51036;SDS011;37064;59.346;18.058;2023-11-22T09:35:03;2.55;;;1.85;;
51036;SDS011;37064;59.346;18.058;2023-11-22T09:37:29;3.05;;;1.67;;
51036;SDS011;37064;59.346;18.058;2023-11-22T09:39:57;3.20;;;1.80;;
51036;SDS011;37064;59.346;18.058;2023-11-22T09:42:23;2.60;;;1.73;;
51036;SDS011;37064;59.346;18.058;2023-11-22T09:44:51;3.42;;;1.77;;
51036;SDS011;37064;59.346;18.058;2023-11-22T09:47:17;3.28;;;2.22;;
51036;SDS011;37064;59.346;18.058;2023-11-22T09:49:44;2.97;;;1.50;;
51036;SDS011;37064;59.346;18.058;2023-11-22T09:52:11;2.88;;;1.50;;
51036;SDS011;37064;59.346;18.058;2023-11-22T09:54:41;3.17;;;1.75;;
51036;SDS011;37064;59.346;18.058;2023-11-22T09:57:08;2.13;;;1.50;;
51036;SDS011;37064;59.346;18.058;2023-11-22T09:59:36;3.00;;;1.88;;
51036;SDS011;37064;59.346;18.058;2023-11-22T10:02:02;4.10;;;2.05;;
51036;SDS011;37064;59.346;18.058;2023-11-22T10:04:29;2.63;;;1.50;;
51036;SDS011;37064;59.346;18.058;2023-11-22T10:06:57;2.78;;;1.70;;
51036;SDS011;37064;59.346;18.058;2023-11-22T10:09:26;2.58;;;1.60;;
51036;SDS011;37064;59.346;18.058;2023-11-22T10:11:57;4.75;;;1.85;;
51036;SDS011;37064;59.346;18.058;2023-11-22T10:14:23;2.05;;;1.40;;
51036;SDS011;37064;59.346;18.058;2023-11-22T10:16:59;3.28;;;1.70;;
51036;SDS011;37064;59.346;18.058;2023-11-22T10:19:25;3.47;;;1.83;;
51036;SDS011;37064;59.346;18.058;2023-11-22T10:22:04;2.95;;;1.80;;
51036;SDS011;37064;59.346;18.058;2023-11-22T10:24:31;5.03;;;2.33;;
51036;SDS011;37064;59.346;18.058;2023-11-22T10:29:26;3.08;;;2.25;;
51036;SDS011;37064;59.346;18.058;2023-11-22T10:31:52;3.35;;;2.20;;
51036;SDS011;37064;59.346;18.058;2023-11-22T10:34:21;3.28;;;2.30;;
51036;SDS011;37064;59.346;18.058;2023-11-22T10:36:47;3.10;;;2.08;;
51036;SDS011;37064;59.346;18.058;2023-11-22T10:39:18;5.38;;;1.98;;
51036;SDS011;37064;59.346;18.058;2023-11-22T10:41:44;6.82;;;2.70;;
51036;SDS011;37064;59.346;18.058;2023-11-22T10:44:11;3.90;;;2.25;;
51036;SDS011;37064;59.346;18.058;2023-11-22T10:46:38;2.75;;;2.08;;
51036;SDS011;37064;59.346;18.058;2023-11-22T10:49:07;5.55;;;2.00;;
51036;SDS011;37064;59.346;18.058;2023-11-22T10:51:33;5.03;;;2.40;;
51036;SDS011;37064;59.346;18.058;2023-11-22T10:54:00;2.95;;;1.88;;
51036;SDS011;37064;59.346;18.058;2023-11-22T10:56:28;7.85;;;2.72;;
51036;SDS011;37064;59.346;18.058;2023-11-22T10:58:58;2.35;;;1.80;;
51036;SDS011;37064;59.346;18.058;2023-11-22T11:01:24;4.10;;;2.35;;
51036;SDS011;37064;59.346;18.058;2023-11-22T11:06:24;4.70;;;2.25;;
51036;SDS011;37064;59.346;18.058;2023-11-22T11:08:55;4.18;;;2.10;;
51036;SDS011;37064;59.346;18.058;2023-11-22T11:11:23;3.78;;;2.53;;
51036;SDS011;37064;59.346;18.058;2023-11-22T11:13:49;5.47;;;2.20;;
51036;SDS011;37064;59.346;18.058;2023-11-22T11:16:16;3.88;;;2.45;;
51036;SDS011;37064;59.346;18.058;2023-11-22T11:18:42;4.00;;;2.08;;
51036;SDS011;37064;59.346;18.058;2023-11-22T11:21:09;3.97;;;2.20;;
51036;SDS011;37064;59.346;18.058;2023-11-22T11:23:38;3.63;;;2.17;;
51036;SDS011;37064;59.346;18.058;2023-11-22T11:26:20;4.07;;;2.58;;
51036;SDS011;37064;59.346;18.058;2023-11-22T11:28:47;5.80;;;2.95;;
51036;SDS011;37064;59.346;18.058;2023-11-22T11:31:14;4.20;;;2.70;;
51036;SDS011;37064;59.346;18.058;2023-11-22T11:36:26;7.60;;;2.53;;
51036;SDS011;37064;59.346;18.058;2023-11-22T11:38:54;3.72;;;2.38;;
51036;SDS011;37064;59.346;18.058;2023-11-22T11:41:28;3.55;;;2.03;;
51036;SDS011;37064;59.346;18.058;2023-11-22T11:43:55;3.55;;;2.40;;
51036;SDS011;37064;59.346;18.058;2023-11-22T11:46:22;5.15;;;2.45;;
51036;SDS011;37064;59.346;18.058;2023-11-22T11:48:50;7.00;;;2.95;;
51036;SDS011;37064;59.346;18.058;2023-11-22T11:51:17;3.70;;;2.20;;
51036;SDS011;37064;59.346;18.058;2023-11-22T11:53:44;4.07;;;2.45;;
51036;SDS011;37064;59.346;18.058;2023-11-22T11:56:11;5.32;;;2.70;;
51036;SDS011;37064;59.346;18.058;2023-11-22T11:58:37;3.92;;;2.17;;
51036;SDS011;37064;59.346;18.058;2023-11-22T12:01:04;5.95;;;2.60;;
51036;SDS011;37064;59.346;18.058;2023-11-22T12:03:32;4.75;;;2.38;;
51036;SDS011;37064;59.346;18.058;2023-11-22T12:05:58;3.80;;;2.13;;
51036;SDS011;37064;59.346;18.058;2023-11-22T12:08:25;6.30;;;1.95;;
51036;SDS011;37064;59.346;18.058;2023-11-22T12:10:55;3.90;;;2.00;;
51036;SDS011;37064;59.346;18.058;2023-11-22T12:13:21;4.15;;;2.30;;
51036;SDS011;37064;59.346;18.058;2023-11-22T12:15:47;3.33;;;2.15;;
51036;SDS011;37064;59.346;18.058;2023-11-22T12:18:13;6.47;;;2.33;;
51036;SDS011;37064;59.346;18.058;2023-11-22T12:20:39;3.22;;;2.28;;
51036;SDS011;37064;59.346;18.058;2023-11-22T12:23:05;5.35;;;3.58;;
51036;SDS011;37064;59.346;18.058;2023-11-22T12:25:32;4.07;;;2.20;;
51036;SDS011;37064;59.346;18.058;2023-11-22T12:27:58;5.15;;;1.83;;
51036;SDS011;37064;59.346;18.058;2023-11-22T12:30:34;4.03;;;2.15;;
51036;SDS011;37064;59.346;18.058;2023-11-22T12:33:01;4.13;;;2.03;;
51036;SDS011;37064;59.346;18.058;2023-11-22T12:35:28;6.93;;;3.22;;
51036;SDS011;37064;59.346;18.058;2023-11-22T12:37:54;3.88;;;1.83;;
51036;SDS011;37064;59.346;18.058;2023-11-22T12:40:20;3.05;;;1.95;;
51036;SDS011;37064;59.346;18.058;2023-11-22T12:42:47;2.40;;;1.50;;
51036;SDS011;37064;59.346;18.058;2023-11-22T12:45:23;3.58;;;1.98;;
51036;SDS011;37064;59.346;18.058;2023-11-22T12:47:50;3.10;;;2.10;;
51036;SDS011;37064;59.346;18.058;2023-11-22T12:53:15;4.40;;;2.00;;
51036;SDS011;37064;59.346;18.058;2023-11-22T12:55:41;2.85;;;1.65;;
51036;SDS011;37064;59.346;18.058;2023-11-22T12:58:12;3.35;;;1.70;;
51036;SDS011;37064;59.346;18.058;2023-11-22T13:00:38;3.03;;;1.58;;
51036;SDS011;37064;59.346;18.058;2023-11-22T13:03:07;4.15;;;1.63;;
51036;SDS011;37064;59.346;18.058;2023-11-22T13:05:35;4.00;;;2.00;;
51036;SDS011;37064;59.346;18.058;2023-11-22T13:08:01;3.65;;;2.40;;
51036;SDS011;37064;59.346;18.058;2023-11-22T13:10:28;3.58;;;1.73;;
51036;SDS011;37064;59.346;18.058;2023-11-22T13:12:55;3.90;;;2.30;;
51036;SDS011;37064;59.346;18.058;2023-11-22T13:15:21;3.78;;;2.03;;
51036;SDS011;37064;59.346;18.058;2023-11-22T13:17:55;3.22;;;1.90;;
51036;SDS011;37064;59.346;18.058;2023-11-22T13:20:27;5.18;;;2.10;;
51036;SDS011;37064;59.346;18.058;2023-11-22T13:22:53;3.17;;;1.92;;
51036;SDS011;37064;59.346;18.058;2023-11-22T13:25:20;3.72;;;2.65;;
51036;SDS011;37064;59.346;18.058;2023-11-22T13:27:48;3.70;;;2.13;;
51036;SDS011;37064;59.346;18.058;2023-11-22T13:30:15;4.03;;;2.50;;
51036;SDS011;37064;59.346;18.058;2023-11-22T13:32:44;2.90;;;1.73;;
51036;SDS011;37064;59.346;18.058;2023-11-22T13:35:10;3.35;;;2.10;;
51036;SDS011;37064;59.346;18.058;2023-11-22T13:37:43;5.57;;;2.33;;
51036;SDS011;37064;59.346;18.058;2023-11-22T13:40:10;5.07;;;2.88;;
51036;SDS011;37064;59.346;18.058;2023-11-22T13:42:39;3.92;;;2.25;;
51036;SDS011;37064;59.346;18.058;2023-11-22T13:45:05;4.93;;;2.42;;
51036;SDS011;37064;59.346;18.058;2023-11-22T13:47:32;2.97;;;1.65;;
51036;SDS011;37064;59.346;18.058;2023-11-22T13:49:58;3.28;;;2.30;;
51036;SDS011;37064;59.346;18.058;2023-11-22T13:52:24;4.00;;;2.08;;
51036;SDS011;37064;59.346;18.058;2023-11-22T13:54:50;3.42;;;2.00;;
51036;SDS011;37064;59.346;18.058;2023-11-22T13:57:21;3.35;;;1.75;;
51036;SDS011;37064;59.346;18.058;2023-11-22T13:59:47;3.30;;;2.13;;
51036;SDS011;37064;59.346;18.058;2023-11-22T14:02:13;3.78;;;2.63;;
51036;SDS011;37064;59.346;18.058;2023-11-22T14:04:39;4.05;;;2.10;;
51036;SDS011;37064;59.346;18.058;2023-11-22T14:07:05;3.65;;;2.55;;
51036;SDS011;37064;59.346;18.058;2023-11-22T14:09:31;4.68;;;2.47;;
51036;SDS011;37064;59.346;18.058;2023-11-22T14:12:01;5.00;;;2.10;;
51036;SDS011;37064;59.346;18.058;2023-11-22T14:14:27;5.20;;;2.47;;
51036;SDS011;37064;59.346;18.058;2023-11-22T14:16:53;6.22;;;2.10;;
51036;SDS011;37064;59.346;18.058;2023-11-22T14:19:19;5.95;;;2.50;;
51036;SDS011;37064;59.346;18.058;2023-11-22T14:21:45;6.50;;;2.45;;
51036;SDS011;37064;59.346;18.058;2023-11-22T14:24:12;2.35;;;1.98;;
51036;SDS011;37064;59.346;18.058;2023-11-22T14:26:38;4.00;;;2.30;;
51036;SDS011;37064;59.346;18.058;2023-11-22T14:29:04;3.40;;;2.22;;
51036;SDS011;37064;59.346;18.058;2023-11-22T14:31:31;7.55;;;2.05;;
51036;SDS011;37064;59.346;18.058;2023-11-22T14:33:57;4.00;;;2.58;;
51036;SDS011;37064;59.346;18.058;2023-11-22T14:36:26;7.75;;;2.92;;
51036;SDS011;37064;59.346;18.058;2023-11-22T14:38:52;4.43;;;1.70;;
51036;SDS011;37064;59.346;18.058;2023-11-22T14:43:47;5.88;;;1.58;;